• Join FlightAware (Why Join?)
  • Login
  • US Flag 
05:02AM EDT


 

Airport Tracker/Info


-or-


 

Live Flight TrackerFlight Track Log ✈ TAM3812 ✈ 05-Jul-2013 ✈ SBSP / CGH - SBCY / CGB

Flight Track Log - Related Links

Times and Time Zones

All times are in EDT time to prevent confusion due to time zone crossing. See the TAM3812 flight status page for this flight to view local times or setup timezone preferences in your user account.

Time Position Orientation Groundspeed Altitude Reporting Facility
EDT Latitude Longitude Course Direction KTS MPH feet Rate Location/Type
08:50PM -23.6250 -46.6600 84° East 124 143  Level FlightAware
08:51PM -23.6240 -46.6470 85° East 124 143 60 Level FlightAware
08:52PM -23.6240 -46.6460 90° East 124 143 60 Level FlightAware
08:54PM -23.4916 -46.8173 310° West  Level Estimated
08:54PM -23.6240 -46.6460 310° West 124 143  Level FlightAware
08:55PM -23.4129 -46.9189 310° West  Level Estimated
08:55PM -23.6250 -46.6600 266° West 124 143  Level FlightAware
08:56PM -23.6240 -46.6460 86° East 124 143 120 Level FlightAware
08:58PM -23.6240 -46.6470 270° West 124 143 120 Level FlightAware
08:59PM -23.6230 -46.6450 61° Northeast 124 143 120 Level FlightAware
09:00PM -23.6250 -46.6600 262° West 124 143 120 Level FlightAware
09:00PM -23.6230 -46.6450 82° East 124 143 120 Level FlightAware
09:01PM -23.6250 -46.6600 262° West 124 143 120 Level FlightAware
09:02PM -23.6240 -46.6460 86° East 124 143 120 Level FlightAware
09:04PM -23.6250 -46.6600 266° West 124 143 120 Level FlightAware
09:05PM -23.6240 -46.6470 85° East 124 143 180 Level FlightAware
09:05PM -23.6250 -46.6600 265° West 124 143 180 Level FlightAware
09:06PM -23.6240 -46.6470 85° East 124 143 180 Level FlightAware
09:06PM -23.6250 -46.6600 265° West 124 143 180 Level FlightAware
09:08PM -23.6240 -46.6470 85° East 124 143 180 Level FlightAware
09:08PM -23.6230 -46.6450 61° Northeast 124 143 180 Level FlightAware
09:09PM -23.6240 -46.6470 241° Southwest 124 143 240 Level FlightAware
09:09PM -23.6250 -46.6600 265° West 124 143 240 Level FlightAware
09:10PM -23.6230 -46.6450 82° East 124 143 240 Level FlightAware
09:10PM -23.6250 -46.6600 262° West 124 143 240 Level FlightAware
09:11PM -23.6240 -46.6460 86° East 124 143 240 Level FlightAware
09:12PM -23.6250 -46.6600 266° West 124 143 240 Level FlightAware
09:13PM -23.6240 -46.6460 86° East 124 143 240 Level FlightAware
09:14PM -23.6250 -46.6600 266° West 124 143 300 Level FlightAware
09:15PM -23.6160 -46.6480 51° Northeast 124 143 300 Level FlightAware
09:17PM -23.4926 -46.8079 310° West  Level Estimated
09:17PM -23.6250 -46.6590 310° West  Level FlightAware
09:19PM -23.6270 -46.6580 155° Southeast 480 Level FlightAware
09:19PM -23.6280 -46.6570 138° Southeast 540 Level FlightAware
09:22PM -23.4450 -46.8933 310° West  Level Estimated
09:23PM -23.3707 -46.9889 310° West  Level Estimated
09:24PM -23.3010 -47.0783 310° West  Level Estimated
09:25PM -23.2313 -47.1677 310° West  Level Estimated
09:26PM -23.1615 -47.2570 310° West  Level Estimated
09:26PM -23.6110 -46.7100 239° Southwest 215 247 4,200  Level FlightAware
09:26PM -23.6340 -46.7300 219° Southwest 225 259 5,200 1,860 Climbing FlightAware
09:27PM -23.6460 -46.7410 220° Southwest 221 254 5,600 720 Climbing FlightAware
09:27PM -23.6640 -46.7620 227° Southwest 242 278 5,700 1,080 Climbing FlightAware
09:27PM -23.6740 -46.7970 253° West 276 318 6,600 2,460 Climbing FlightAware
09:28PM -23.6860 -46.8360 251° West 286 329 8,000 3,420 Climbing FlightAware
09:28PM -23.6980 -46.8730 250° West 280 322 9,800 2,460 Climbing FlightAware
09:29PM -23.7180 -46.9360 251° West 323 372 11,000 1,740 Climbing FlightAware
09:30PM -23.6950 -47.0520 282° West 348 400 13,500 2,100 Climbing FlightAware
09:31PM -23.6500 -47.1290 303° West 360 414 15,400 2,340 Climbing FlightAware
09:32PM -23.6140 -47.1930 302° West 370 426 16,900 2,280 Climbing FlightAware
09:33PM -23.5760 -47.2590 302° West 375 432 18,500 2,100 Climbing FlightAware
09:33PM -23.5430 -47.3160 302° West 385 443 19,600 1,620 Climbing FlightAware
09:34PM -23.5020 -47.3850 303° West 399 459 20,600 1,560 Climbing FlightAware
09:35PM -23.4540 -47.4560 306° West 411 473 21,800 1,560 Climbing FlightAware
09:35PM -23.4130 -47.5160 307° West 417 480 22,700 1,320 Climbing FlightAware
09:36PM -23.3650 -47.5850 307° West 429 494 23,500 1,260 Climbing FlightAware
09:37PM -23.3140 -47.6600 307° West 436 502 24,500 1,140 Climbing FlightAware
09:37PM -23.2630 -47.7360 306° West 451 519 25,200 1,020 Climbing FlightAware
09:38PM -23.2130 -47.8090 307° West 460 529 25,900 1,140 Climbing FlightAware
09:39PM -23.1560 -47.8930 306° West 468 539 26,800 1,200 Climbing FlightAware
09:39PM -23.1030 -47.9690 307° West 473 544 27,600 1,140 Climbing FlightAware
09:40PM -23.0590 -48.0340 306° West 476 548 28,300 1,200 Climbing FlightAware
09:41PM -23.0100 -48.1050 307° West 478 550 29,100 1,320 Climbing FlightAware
09:41PM -22.9550 -48.1850 307° West 480 552 30,000 1,380 Climbing FlightAware
09:42PM -22.8910 -48.2770 307° West 475 547 31,200 1,320 Climbing FlightAware
09:43PM -22.8380 -48.3540 307° West 468 539 32,000 540 Climbing FlightAware
09:43PM -22.7770 -48.4420 307° West 468 539 32,000  Level FlightAware
09:44PM -22.7260 -48.5150 307° West 469 540 32,000 780 Level FlightAware
09:45PM -22.6690 -48.5970 307° West 462 532 33,100 1,260 Climbing FlightAware
09:46PM -22.6190 -48.6690 307° West 462 532 33,800 660 Climbing FlightAware
09:46PM -22.5650 -48.7470 307° West 477 549 34,000 120 Climbing FlightAware
09:47PM -22.5060 -48.8320 307° West 487 560 34,000  Level FlightAware
09:48PM -22.4460 -48.9180 307° West 486 559 34,000  Level FlightAware
09:48PM -22.3920 -48.9940 308° West 482 555 34,000  Level FlightAware
09:49PM -22.3380 -49.0720 307° West 482 555 34,000  Level FlightAware
09:50PM -22.2860 -49.1380 310° West 484 557 34,000  Level FlightAware
09:50PM -22.2180 -49.2140 314° West 483 556 34,000  Level FlightAware
09:51PM -22.1550 -49.2850 314° West 482 555 34,000  Level FlightAware
09:52PM -22.0990 -49.3470 314° West 481 554 34,000  Level FlightAware
09:52PM -22.0410 -49.4110 314° West 480 552 34,000  Level FlightAware
09:53PM -21.9690 -49.4920 314° West 480 552 34,000  Level FlightAware
09:54PM -21.9080 -49.5590 314° West 480 552 34,000 120 Level FlightAware
09:54PM -21.8460 -49.6290 314° West 481 554 34,200 660 Climbing FlightAware
09:55PM -21.7770 -49.7050 314° West 480 552 35,000 1,080 Climbing FlightAware
09:56PM -21.7090 -49.7810 314° West 478 550 35,800 720 Climbing FlightAware
09:56PM -21.6560 -49.8390 315° West 477 549 36,000 120 Climbing FlightAware
09:57PM -21.5950 -49.9060 314° West 475 547 36,000  Level FlightAware
09:58PM -21.5240 -49.9840 314° West 477 549 36,000  Level FlightAware
09:58PM -21.4640 -50.0520 313° West 478 550 36,000  Level FlightAware
09:59PM -21.3950 -50.1270 315° West 478 550 36,000  Level FlightAware
10:00PM -21.3320 -50.1980 314° West 477 549 36,000  Level FlightAware
10:01PM -21.2430 -50.2960 314° West 476 548 36,000  Level FlightAware
10:02PM -21.1730 -50.3730 314° West 476 548 36,000  Level FlightAware
10:02PM -21.1110 -50.4430 314° West 475 547 36,000  Level FlightAware
10:03PM -21.0490 -50.5120 314° West 475 547 36,000  Level FlightAware
10:04PM -20.9820 -50.5850 315° West 475 547 36,000  Level FlightAware
10:04PM -20.9190 -50.6550 314° West 475 547 36,000  Level FlightAware
10:05PM -20.8540 -50.7270 314° West 475 547 36,000  Level FlightAware
10:06PM -20.8030 -50.7850 313° West 475 547 36,000  Level FlightAware
10:06PM -20.7570 -50.8380 313° West 475 547 36,000  Level FlightAware
10:07PM -20.7110 -50.8900 313° West 475 547 36,000  Level FlightAware
10:08PM -20.6060 -50.9910 318° Northwest 478 550 36,000  Level FlightAware
10:08PM -20.5580 -51.0450 314° West 478 550 36,000  Level FlightAware
10:09PM -20.5110 -51.0970 314° West 478 550 36,000  Level FlightAware
10:10PM -20.4480 -51.1660 314° West 478 550 36,000  Level FlightAware
10:10PM -20.4010 -51.2180 314° West 478 550 36,000  Level FlightAware
10:11PM -20.3380 -51.2870 314° West 478 550 36,000  Level FlightAware
10:12PM -20.2910 -51.3390 314° West 478 550 36,000  Level FlightAware
10:13PM -20.2300 -51.4070 314° West 478 550 36,000  Level FlightAware
10:13PM -20.1030 -51.5290 318° Northwest 476 548 36,000  Level FlightAware
10:14PM -20.0300 -51.6080 315° West 476 548 36,000  Level FlightAware
10:15PM -19.9640 -51.6780 315° West 475 547 36,000  Level FlightAware
10:15PM -19.9120 -51.7330 315° West 475 547 36,000  Level FlightAware
10:16PM -19.8590 -51.7900 315° West 475 547 36,000  Level FlightAware
10:17PM -19.7840 -51.8700 315° West 478 550 36,000  Level FlightAware
10:17PM -19.7250 -51.9340 314° West 478 550 36,000  Level FlightAware
10:18PM -19.6610 -52.0010 315° West 479 551 36,000  Level FlightAware
10:19PM -19.5960 -52.0700 315° West 480 552 36,000  Level FlightAware
10:19PM -19.5430 -52.1260 315° West 479 551 36,000  Level FlightAware
10:20PM -19.4810 -52.1920 315° West 478 550 36,000  Level FlightAware
10:21PM -19.4110 -52.2660 315° West 476 548 36,000  Level FlightAware
10:21PM -19.3410 -52.3390 315° West 476 548 36,000  Level FlightAware
10:22PM -19.2810 -52.4040 314° West 475 547 36,000  Level FlightAware
10:23PM -19.2120 -52.4760 315° West 474 545 36,000  Level FlightAware
10:23PM -19.1460 -52.5450 315° West 474 545 36,000  Level FlightAware
10:24PM -19.0840 -52.6100 315° West 475 547 36,000  Level FlightAware
10:25PM -19.0210 -52.6760 315° West 475 547 36,000  Level FlightAware
10:25PM -18.9660 -52.7340 315° West 475 547 36,000  Level FlightAware
10:26PM -18.9000 -52.8030 315° West 475 547 36,000  Level FlightAware
10:27PM -18.8360 -52.8700 315° West 475 547 36,000  Level FlightAware
10:27PM -18.7720 -52.9380 315° West 476 548 36,000  Level FlightAware
10:28PM -18.7100 -53.0020 316° Northwest 477 549 36,000  Level FlightAware
10:29PM -18.6400 -53.0740 316° Northwest 477 549 36,000  Level FlightAware
10:29PM -18.5770 -53.1400 315° West 476 548 36,000  Level FlightAware
10:30PM -18.5080 -53.2120 315° West 476 548 36,000  Level FlightAware
10:31PM -18.4460 -53.2770 315° West 476 548 36,000  Level FlightAware
10:32PM -18.3760 -53.3490 316° Northwest 475 547 36,000  Level FlightAware
10:32PM -18.3140 -53.4140 315° West 475 547 36,000  Level FlightAware
10:33PM -18.2510 -53.4790 316° Northwest 474 545 36,000  Level FlightAware
10:34PM -18.1790 -53.5530 316° Northwest 473 544 36,000  Level FlightAware
10:34PM -18.1160 -53.6190 315° West 473 544 36,000  Level FlightAware
10:35PM -18.0530 -53.6840 316° Northwest 473 544 36,000  Level FlightAware
10:36PM -17.9930 -53.7460 315° West 472 543 36,000  Level FlightAware
10:36PM -17.9280 -53.8130 316° Northwest 471 542 36,000  Level FlightAware
10:37PM -17.8660 -53.8770 316° Northwest 472 543 36,000  Level FlightAware
10:38PM -17.8010 -53.9430 316° Northwest 473 544 36,000  Level FlightAware
10:38PM -17.7400 -54.0060 315° West 473 544 36,000  Level FlightAware
10:39PM -17.6760 -54.0720 315° West 473 544 36,000  Level FlightAware
10:40PM -17.5770 -54.1750 315° West 473 544 36,000  Level FlightAware
10:41PM -17.4840 -54.2690 316° Northwest 470 541 36,000  Level FlightAware
10:42PM -17.4170 -54.3370 316° Northwest 469 540 36,000  Level FlightAware
10:42PM -17.3620 -54.3940 315° West 469 540 36,000  Level FlightAware
10:43PM -17.3020 -54.4570 315° West 469 540 36,000  Level FlightAware
10:44PM -17.2310 -54.5270 317° Northwest 468 539 36,000  Level FlightAware
10:44PM -17.1690 -54.5900 316° Northwest 469 540 36,000  Level FlightAware
10:45PM -17.0890 -54.6730 315° West 468 539 36,000  Level FlightAware
10:46PM -17.0400 -54.7230 316° Northwest 468 539 36,000  Level FlightAware
10:47PM -16.9780 -54.7880 315° West 468 539 36,000  Level FlightAware
10:47PM -16.9310 -54.8370 315° West 468 539 36,000  Level FlightAware
10:48PM -16.8840 -54.8860 315° West 468 539 36,000  Level FlightAware
10:49PM -16.8220 -54.9520 314° West 468 539 36,000  Level FlightAware
10:49PM -16.7750 -55.0010 315° West 468 539 36,000  Level FlightAware
10:50PM -16.7290 -55.0480 316° Northwest 468 539 36,000  Level FlightAware
10:51PM -16.6670 -55.1130 315° West 468 539 36,000  Level FlightAware
10:51PM -16.6190 -55.1640 314° West 468 539 36,000  Level FlightAware
10:52PM -16.5560 -55.2290 315° West 468 539 36,000  Level FlightAware
10:53PM -16.5090 -55.2780 315° West 468 539 36,000  Level FlightAware
10:54PM -16.4470 -55.3430 315° West 468 539 36,000  Level FlightAware
10:54PM -16.3990 -55.3930 315° West 468 539 36,000  Level FlightAware
10:55PM -16.3520 -55.4420 315° West 468 539 36,000  Level FlightAware
10:58PM -16.1472 -55.6404 317° Northwest  Level Estimated
10:59PM -16.0703 -55.7147 317° Northwest  Level Estimated
11:00PM -15.9935 -55.7889 317° Northwest  Level Estimated
11:01PM -15.9166 -55.8631 317° Northwest  Level Estimated
11:02PM -15.8396 -55.9372 317° Northwest  Level Estimated
11:03PM -15.7627 -56.0112 317° Northwest  Level Estimated
11:04PM -15.6857 -56.0853 317° Northwest  Level Estimated
11:05PM -15.6529 -56.1167 317° Northwest  Level Estimated
11:06PM -15.6529 -56.1167 136° Southeast  Level Estimated
11:07PM -15.6529 -56.1167 136° Southeast  Level Estimated
11:08PM -15.6529 -56.1167 136° Southeast  Level Estimated
11:09PM -15.6529 -56.1167 136° Southeast  Level Estimated
11:10PM -15.6529 -56.1167 136° Southeast  Level Estimated
11:11PM -15.6529 -56.1167 136° Southeast  Level Estimated
11:12PM -15.6529 -56.1167 136° Southeast  Level Estimated
11:13PM -15.6529 -56.1167 136° Southeast  Level Estimated
11:14PM -15.6529 -56.1167 136° Southeast  Level Estimated
11:15PM -15.6529 -56.1167 136° Southeast  Level Estimated
11:16PM -15.6529 -56.1167 136° Southeast  Level Estimated
11:17PM -15.6529 -56.1167 136° Southeast  Level Estimated
11:18PM -15.6529 -56.1167 136° Southeast  Level Estimated
11:19PM -15.6529 -56.1167 136° Southeast  Level Estimated
11:20PM -15.6529 -56.1167 136° Southeast  Level Estimated